Time;durP1;ratioP1;P1;durP2;ratioP2;P2;SDS_P1;SDS_P2;PMS_P1;PMS_P2;Temp;Humidity;BMP_temperature;BMP_pressure;BME280_temperature;BME280_humidity;BME280_pressure;Samples;Min_cycle;Max_cycle;Signal;HPM_P1;HPM_P2
2022/08/26 00:00:52;;;;;;;14.83;4.10;;;;;;;24.36;29.91;100571.83;1715409;82;21005;-93
2022/08/26 00:03:18;;;;;;;15.80;4.37;;;;;;;24.34;29.91;100573.86;1714034;83;20939;-95
2022/08/26 00:05:45;;;;;;;12.10;3.35;;;;;;;24.32;30.11;100567.03;1714645;83;20986;-92
2022/08/26 00:08:14;;;;;;;13.13;3.92;;;;;;;24.32;30.39;100572.39;1715094;83;20876;-94
2022/08/26 00:10:41;;;;;;;10.50;3.47;;;;;;;24.30;30.29;100573.93;1716261;81;21161;-91
2022/08/26 00:13:09;;;;;;;14.47;3.95;;;;;;;24.28;30.50;100571.94;1716301;81;20971;-92
2022/08/26 00:15:37;;;;;;;21.95;4.15;;;;;;;24.26;30.78;100569.13;1716387;82;20978;-92
2022/08/26 00:18:06;;;;;;;18.67;4.40;;;;;;;24.24;30.53;100573.31;1704193;84;20995;-95
2022/08/26 00:20:33;;;;;;;19.20;4.20;;;;;;;24.22;30.81;100564.62;1713809;83;21406;-93
2022/08/26 00:23:01;;;;;;;10.75;3.65;;;;;;;24.20;30.64;100567.99;1713759;82;21248;-94
2022/08/26 00:25:28;;;;;;;24.07;4.08;;;;;;;24.19;30.62;100559.64;1714240;82;20939;-93
2022/08/26 00:27:55;;;;;;;12.88;3.10;;;;;;;24.17;30.20;100563.84;1714289;82;20943;-94
2022/08/26 00:30:25;;;;;;;15.03;3.83;;;;;;;24.16;30.22;100559.47;1705886;83;21144;-94
2022/08/26 00:32:53;;;;;;;7.00;3.92;;;;;;;24.16;30.27;100559.98;1715849;82;21001;-93
2022/08/26 00:35:20;;;;;;;12.35;3.92;;;;;;;24.15;30.26;100555.66;1716044;82;21279;-93
2022/08/26 00:37:47;;;;;;;15.68;3.95;;;;;;;24.15;30.22;100567.20;1709819;81;21376;-94
2022/08/26 00:40:17;;;;;;;13.72;4.40;;;;;;;24.13;30.38;100558.51;1704780;83;20911;-94
2022/08/26 00:42:44;;;;;;;16.40;4.22;;;;;;;24.13;30.51;100562.53;1705138;83;21488;-89
2022/08/26 00:45:11;;;;;;;13.22;4.58;;;;;;;24.12;30.30;100568.91;1705190;84;21354;-93
2022/08/26 00:47:55;;;;;;;18.35;4.55;;;;;;;24.10;30.49;100555.34;1704612;82;21225;-96
2022/08/26 00:50:29;;;;;;;8.23;3.92;;;;;;;24.08;30.51;100554.21;1704700;84;20939;-93
2022/08/26 00:52:56;;;;;;;9.08;4.53;;;;;;;24.06;30.28;100553.56;1706119;83;20971;-93
2022/08/26 00:55:35;;;;;;;19.52;4.28;;;;;;;24.03;30.35;100555.24;1706601;82;21021;-92
2022/08/26 00:58:02;;;;;;;13.05;4.30;;;;;;;23.99;30.37;100548.09;1706660;83;20928;-91
2022/08/26 01:00:30;;;;;;;17.67;5.00;;;;;;;23.95;30.38;100541.95;1706533;81;21235;-92
2022/08/26 01:02:58;;;;;;;21.75;4.70;;;;;;;23.92;30.27;100541.80;1705699;83;20955;-93
2022/08/26 01:05:25;;;;;;;12.13;4.10;;;;;;;23.89;30.29;100540.81;1705570;83;20967;-92
2022/08/26 01:07:52;;;;;;;20.48;5.70;;;;;;;23.87;30.47;100536.14;1705961;81;21234;-90
2022/08/26 01:10:23;;;;;;;27.30;5.80;;;;;;;23.83;30.56;100536.17;1705635;81;20927;-92
2022/08/26 01:12:54;;;;;;;17.05;5.40;;;;;;;23.81;30.70;100528.82;1704806;83;20924;-93
2022/08/26 01:15:29;;;;;;;18.17;5.92;;;;;;;23.77;30.87;100527.03;1705354;83;20884;-92
2022/08/26 01:17:58;;;;;;;12.37;5.37;;;;;;;23.74;30.79;100531.36;1705409;84;20944;-92
2022/08/26 01:20:52;;;;;;;12.93;5.53;;;;;;;23.72;30.90;100535.23;1705174;83;21039;-91
2022/08/26 01:23:19;;;;;;;19.77;5.62;;;;;;;23.67;30.97;100535.77;1684723;82;21456;-93
2022/08/26 01:25:51;;;;;;;19.73;4.55;;;;;;;23.63;30.95;100546.52;1705329;83;20884;-93
2022/08/26 01:28:29;;;;;;;13.68;4.60;;;;;;;23.61;30.99;100539.67;1704764;83;20987;-92
2022/08/26 01:30:56;;;;;;;17.42;4.85;;;;;;;23.59;31.17;100542.04;1705598;82;21019;-95
2022/08/26 01:33:31;;;;;;;11.85;4.72;;;;;;;23.58;31.03;100547.56;1704552;84;20904;-93
2022/08/26 01:35:57;;;;;;;13.95;4.95;;;;;;;23.55;30.85;100546.08;1680378;82;20908;-94
2022/08/26 01:38:24;;;;;;;16.97;5.12;;;;;;;23.51;31.11;100547.45;1704926;83;21144;-91
2022/08/26 01:40:51;;;;;;;18.20;5.10;;;;;;;23.49;31.18;100543.28;1704829;84;20876;-93
2022/08/26 01:43:22;;;;;;;19.25;5.35;;;;;;;23.47;31.21;100546.13;1704741;82;21365;-94
2022/08/26 01:45:48;;;;;;;13.68;5.83;;;;;;;23.45;31.22;100547.33;1704266;84;20931;-94
2022/08/26 01:48:20;;;;;;;13.00;5.03;;;;;;;23.42;31.22;100551.70;1704625;83;20991;-93
2022/08/26 01:50:46;;;;;;;15.72;5.80;;;;;;;23.38;31.33;100546.69;1705002;83;21244;-92
2022/08/26 01:53:16;;;;;;;17.23;6.75;;;;;;;23.35;31.36;100541.70;1705562;83;20844;-93
2022/08/26 01:55:45;;;;;;;9.83;5.87;;;;;;;23.30;31.61;100540.08;1704384;84;20946;-92
2022/08/26 01:58:21;;;;;;;14.80;7.62;;;;;;;23.28;31.60;100538.59;1704856;83;20948;-93
2022/08/26 02:00:48;;;;;;;23.15;7.97;;;;;;;23.25;31.83;100541.09;1706658;84;20868;-93
2022/08/26 02:03:15;;;;;;;21.97;8.45;;;;;;;23.22;31.78;100540.62;1706482;84;21219;-91
2022/08/26 02:05:52;;;;;;;14.33;8.23;;;;;;;23.20;31.78;100547.48;1706879;81;21006;-94
2022/08/26 02:08:23;;;;;;;14.87;8.35;;;;;;;23.18;31.88;100546.83;1707156;83;20976;-93
2022/08/26 02:10:51;;;;;;;19.07;9.63;;;;;;;23.15;32.02;100548.02;1706922;82;20895;-93
2022/08/26 02:13:18;;;;;;;17.42;8.13;;;;;;;23.13;32.05;100549.20;1706659;83;20979;-93
2022/08/26 02:15:46;;;;;;;15.38;7.87;;;;;;;23.10;32.47;100548.20;1706953;83;21142;-92
2022/08/26 02:18:12;;;;;;;21.48;7.70;;;;;;;23.07;32.51;100552.06;1706877;82;20967;-95
2022/08/26 02:20:39;;;;;;;15.63;8.13;;;;;;;23.06;32.37;100550.92;1706526;81;20939;-93
2022/08/26 02:23:07;;;;;;;20.50;8.68;;;;;;;23.03;32.53;100550.74;1706386;82;20951;-91
2022/08/26 02:26:16;;;;;;;18.75;8.48;;;;;;;23.05;32.34;100543.89;1802150;79;22674;-93
2022/08/26 02:28:51;;;;;;;18.98;9.10;;;;;;;22.95;32.56;100555.61;1760464;81;20876;-94
2022/08/26 02:31:19;;;;;;;20.25;9.35;;;;;;;22.93;32.74;100551.45;1759729;81;22083;-95
2022/08/26 02:33:46;;;;;;;18.48;9.45;;;;;;;22.91;32.83;100554.80;1759613;81;20967;-94
2022/08/26 02:36:21;;;;;;;18.90;8.60;;;;;;;22.88;32.89;100557.83;1759429;81;20872;-95
2022/08/26 02:38:48;;;;;;;;;;;;;;;22.85;33.06;100554.98;1762094;81;21480;-93
2022/08/26 02:41:14;;;;;;;20.55;8.70;;;;;;;22.84;32.97;100555.17;1759595;80;20089;-95
2022/08/26 02:43:41;;;;;;;18.07;8.25;;;;;;;22.81;33.08;100559.03;1759333;81;21120;-94
2022/08/26 02:46:08;;;;;;;16.07;6.50;;;;;;;22.78;33.33;100568.72;1759532;80;21370;-92
2022/08/26 02:48:34;;;;;;;9.08;6.90;;;;;;;22.75;33.49;100564.55;1759172;81;21405;-92
2022/08/26 02:51:01;;;;;;;14.75;7.00;;;;;;;22.74;33.51;100570.06;1760804;81;20880;-93
2022/08/26 02:53:29;;;;;;;18.55;7.15;;;;;;;22.72;33.44;100574.75;1761988;78;20944;-92
2022/08/26 02:55:56;;;;;;;15.40;5.50;;;;;;;22.72;33.89;100572.08;1761517;78;21170;-94
2022/08/26 02:58:23;;;;;;;13.93;5.87;;;;;;;22.70;33.92;100575.42;1761612;78;20963;-93
2022/08/26 03:00:49;;;;;;;10.68;4.97;;;;;;;22.70;33.46;100573.60;1761477;78;20975;-92
2022/08/26 03:03:16;;;;;;;13.62;6.85;;;;;;;22.68;33.74;100578.29;1759667;81;20971;-92
2022/08/26 03:05:43;;;;;;;14.93;6.35;;;;;;;22.69;33.72;100583.95;1759650;81;21401;-93
2022/08/26 03:08:10;;;;;;;12.60;6.97;;;;;;;22.69;33.54;100585.80;1760550;81;21176;-94
2022/08/26 03:10:39;;;;;;;20.02;7.53;;;;;;;22.68;33.57;100582.81;1759629;80;20916;-93
2022/08/26 03:13:06;;;;;;;13.80;6.58;;;;;;;22.67;33.50;100577.94;1761080;81;21544;-91
2022/08/26 03:15:33;;;;;;;15.35;5.67;;;;;;;22.67;33.70;100573.10;1760846;81;20881;-90
2022/08/26 03:17:59;;;;;;;13.45;6.05;;;;;;;22.68;33.55;100574.28;1759182;81;21461;-90
2022/08/26 03:20:26;;;;;;;13.85;5.55;;;;;;;22.69;33.49;100566.57;1759188;81;21159;-93
2022/08/26 03:22:54;;;;;;;16.17;5.60;;;;;;;22.71;33.53;100568.57;1759048;81;20876;-93
2022/08/26 03:25:21;;;;;;;21.35;9.00;;;;;;;22.73;33.56;100571.91;1752301;81;20888;-94
2022/08/26 03:27:51;;;;;;;18.17;8.45;;;;;;;22.75;33.65;100575.25;1748390;79;20933;-91
2022/08/26 03:33:07;;;;;;;22.42;10.63;;;;;;;22.77;33.51;100576.42;1748708;80;21054;-92
2022/08/26 03:35:34;;;;;;;20.92;10.55;;;;;;;22.79;33.56;100574.89;1748191;79;20837;-92
2022/08/26 03:38:03;;;;;;;24.82;11.20;;;;;;;22.79;33.56;100569.55;1745948;82;20920;-94
2022/08/26 03:40:32;;;;;;;26.70;11.83;;;;;;;22.78;33.77;100582.09;1745438;82;20968;-91
2022/08/26 03:42:59;;;;;;;23.42;10.53;;;;;;;22.81;33.70;100573.73;1745817;81;20944;-92
2022/08/26 03:45:26;;;;;;;21.33;10.15;;;;;;;22.84;33.77;100582.73;1745926;82;21920;-93
2022/08/26 03:47:55;;;;;;;17.77;9.75;;;;;;;22.86;33.85;100587.92;1745615;81;20888;-94
2022/08/26 03:50:25;;;;;;;26.35;10.10;;;;;;;22.88;33.73;100584.06;1746860;81;20833;-93
2022/08/26 03:52:54;;;;;;;19.80;10.08;;;;;;;22.89;33.74;100586.23;1746168;82;20892;-94
2022/08/26 03:55:24;;;;;;;31.05;10.32;;;;;;;22.93;33.81;100591.56;1746302;82;20916;-92
2022/08/26 03:57:51;;;;;;;21.33;10.43;;;;;;;22.96;33.89;100589.87;1746921;82;21260;-92
2022/08/26 04:00:18;;;;;;;32.80;9.98;;;;;;;23.00;34.15;100589.89;1747220;82;20929;-94
2022/08/26 04:02:47;;;;;;;23.80;10.43;;;;;;;23.05;33.75;100598.22;1748280;80;20818;-91
2022/08/26 04:05:18;;;;;;;17.40;8.08;;;;;;;23.09;33.51;100588.84;1747979;79;21445;-93
2022/08/26 04:07:46;;;;;;;24.90;8.18;;;;;;;23.14;33.56;100583.82;1748128;79;21027;-92
2022/08/26 04:10:16;;;;;;;15.32;6.10;;;;;;;23.19;33.33;100588.64;1747562;79;21037;-92
2022/08/26 04:12:43;;;;;;;23.05;6.85;;;;;;;23.23;33.39;100601.15;1746592;81;20928;-92
2022/08/26 04:15:13;;;;;;;19.17;5.87;;;;;;;23.25;33.43;100603.14;1746266;81;20921;-94
2022/08/26 04:17:39;;;;;;;9.53;4.08;;;;;;;23.29;33.40;100599.94;1746030;81;20925;-93
2022/08/26 04:20:06;;;;;;;17.25;5.60;;;;;;;23.32;33.51;100590.24;1745852;81;21023;-90
2022/08/26 04:22:33;;;;;;;18.10;4.60;;;;;;;23.36;33.42;100582.16;1745947;81;21202;-89
2022/08/26 04:25:00;;;;;;;15.00;4.12;;;;;;;23.41;33.47;100590.17;1748577;81;21334;-91
2022/08/26 04:27:27;;;;;;;14.53;4.80;;;;;;;23.44;33.29;100591.17;1759839;80;20939;-92
2022/08/26 04:29:53;;;;;;;11.55;4.75;;;;;;;23.45;33.41;100595.50;1759626;81;20916;-93
2022/08/26 04:32:20;;;;;;;11.22;4.72;;;;;;;23.46;33.23;100595.34;1759446;81;20884;-94
2022/08/26 04:34:47;;;;;;;17.25;4.55;;;;;;;23.47;33.48;100596.98;1759203;81;21224;-91
2022/08/26 04:37:15;;;;;;;18.20;4.12;;;;;;;23.48;33.57;100601.86;1758890;80;20900;-94
2022/08/26 04:39:42;;;;;;;14.40;4.58;;;;;;;23.50;33.44;100595.31;1758654;81;20897;-90
2022/08/26 04:42:08;;;;;;;15.63;6.00;;;;;;;23.57;33.65;100588.75;1759177;81;20884;-91
2022/08/26 04:44:36;;;;;;;19.17;5.95;;;;;;;23.67;32.95;100587.16;1758672;81;20975;-91
2022/08/26 04:47:03;;;;;;;18.40;5.33;;;;;;;23.78;32.79;100584.92;1758869;81;21347;-89
2022/08/26 04:49:31;;;;;;;15.95;5.47;;;;;;;23.89;32.87;100589.53;1758685;80;20896;-94
2022/08/26 04:51:57;;;;;;;15.65;6.65;;;;;;;24.02;32.48;100588.94;1759087;81;20940;-91
2022/08/26 04:54:25;;;;;;;13.62;7.17;;;;;;;24.17;32.65;100583.94;1758941;81;20931;-92
2022/08/26 04:56:52;;;;;;;24.15;9.08;;;;;;;24.37;32.62;100582.08;1758516;80;20852;-94
2022/08/26 04:59:18;;;;;;;19.60;8.85;;;;;;;24.62;32.43;100585.34;1758804;81;21427;-92
2022/08/26 05:01:48;;;;;;;15.55;8.50;;;;;;;24.94;32.01;100591.33;1759381;81;20872;-92
2022/08/26 05:04:17;;;;;;;21.20;9.18;;;;;;;25.39;31.94;100584.89;1760226;81;21523;-94
2022/08/26 05:06:47;;;;;;;20.12;7.90;;;;;;;25.99;31.36;100580.12;1759395;81;20912;-92
2022/08/26 05:09:14;;;;;;;24.82;8.38;;;;;;;26.36;30.59;100582.13;1759074;81;20849;-93
2022/08/26 05:11:41;;;;;;;20.45;8.60;;;;;;;26.53;30.30;100578.63;1758917;81;21951;-93
2022/08/26 05:14:08;;;;;;;16.60;8.00;;;;;;;26.68;29.62;100578.55;1758828;81;21401;-91
2022/08/26 05:16:36;;;;;;;19.70;7.55;;;;;;;26.96;29.65;100573.06;1759606;81;20877;-92
2022/08/26 05:19:05;;;;;;;16.67;7.50;;;;;;;27.34;29.23;100571.25;1760562;81;21410;-89
2022/08/26 05:21:31;;;;;;;17.25;8.43;;;;;;;27.66;28.61;100575.58;1759860;81;21003;-89
2022/08/26 05:23:59;;;;;;;20.65;8.60;;;;;;;27.96;28.21;100581.94;1758823;80;21247;-89
2022/08/26 05:26:28;;;;;;;17.00;7.55;;;;;;;28.24;27.57;100582.55;1758416;80;20963;-91
2022/08/26 05:28:55;;;;;;;13.88;6.22;;;;;;;28.41;27.33;100579.39;1758369;81;20900;-93
2022/08/26 05:31:25;;;;;;;13.30;6.35;;;;;;;28.48;26.94;100575.69;1695779;83;20899;-90
2022/08/26 05:33:53;;;;;;;12.18;7.67;;;;;;;28.61;27.13;100591.00;1722090;83;20880;-87
2022/08/26 05:36:21;;;;;;;15.20;7.40;;;;;;;28.77;26.51;100589.73;1722302;83;21076;-89
2022/08/26 05:38:48;;;;;;;18.32;6.97;;;;;;;28.83;26.46;100583.45;1722284;83;20924;-89
2022/08/26 05:41:23;;;;;;;18.50;6.53;;;;;;;28.98;26.34;100587.25;1723027;83;20923;-88
2022/08/26 05:43:51;;;;;;;17.20;7.25;;;;;;;29.11;25.69;100583.17;1724396;82;20963;-88
2022/08/26 05:46:17;;;;;;;16.65;7.05;;;;;;;29.24;25.44;100589.56;1724916;83;20979;-88
2022/08/26 05:48:45;;;;;;;17.15;7.08;;;;;;;29.49;25.36;100585.03;1724671;83;21284;-87
2022/08/26 05:51:12;;;;;;;13.78;6.67;;;;;;;29.74;25.00;100585.09;1724905;83;20903;-89
2022/08/26 05:53:41;;;;;;;17.85;6.92;;;;;;;29.80;25.28;100588.80;1699043;80;21010;-87
2022/08/26 05:56:08;;;;;;;11.20;5.67;;;;;;;30.02;25.43;100585.20;1725213;80;20971;-88
2022/08/26 05:58:35;;;;;;;17.42;5.10;;;;;;;30.38;25.38;100580.93;1725149;80;20923;-89
2022/08/26 06:01:15;;;;;;;25.05;16.77;;;;;;;30.86;24.11;100580.22;1724203;82;21058;-92
2022/08/26 06:03:45;;;;;;;13.38;7.87;;;;;;;31.26;23.96;100583.77;1704215;84;20929;-90
2022/08/26 06:06:17;;;;;;;11.85;7.58;;;;;;;31.67;23.62;100586.20;1704283;84;20901;-91
2022/08/26 06:08:46;;;;;;;11.10;5.30;;;;;;;31.88;22.93;100580.73;1704225;84;20972;-88
2022/08/26 06:11:16;;;;;;;16.70;4.65;;;;;;;31.69;22.96;100582.73;1704203;84;20862;-88
2022/08/26 06:13:43;;;;;;;12.00;3.70;;;;;;;31.31;23.12;100585.25;1704292;84;21157;-88
2022/08/26 06:16:14;;;;;;;18.57;3.72;;;;;;;30.88;23.61;100586.24;1704063;84;20933;-90
2022/08/26 06:18:44;;;;;;;10.30;3.52;;;;;;;30.47;23.82;100584.17;1704009;84;21355;-89
2022/08/26 06:21:22;;;;;;;17.50;3.42;;;;;;;30.07;24.26;100589.41;1704257;84;20886;-89
2022/08/26 06:26:35;;;;;;;17.85;2.85;;;;;;;29.45;24.99;100581.63;1701781;80;21156;-89
2022/08/26 06:29:03;;;;;;;8.95;2.30;;;;;;;29.27;25.13;100587.77;1711106;81;20889;-89
2022/08/26 06:31:32;;;;;;;14.68;3.67;;;;;;;29.09;24.28;100574.45;1710811;84;20944;-89
2022/08/26 06:33:59;;;;;;;16.02;2.80;;;;;;;28.91;24.66;100574.30;1710481;80;21432;-90
2022/08/26 06:36:27;;;;;;;28.67;3.42;;;;;;;29.10;23.91;100588.28;1708915;83;21045;-90
2022/08/26 06:38:56;;;;;;;12.78;3.17;;;;;;;29.39;23.86;100588.72;1708904;83;21119;-88
2022/08/26 06:41:22;;;;;;;9.98;2.70;;;;;;;29.68;23.28;100579.70;1708892;84;20917;-88
2022/08/26 06:43:49;;;;;;;8.90;2.60;;;;;;;29.87;22.75;100590.92;1708899;83;20980;-89
2022/08/26 06:46:17;;;;;;;16.20;2.58;;;;;;;30.02;22.94;100577.61;1708592;84;20873;-90
2022/08/26 06:48:45;;;;;;;15.32;3.02;;;;;;;30.13;22.62;100572.83;1709280;83;20936;-90
2022/08/26 06:51:17;;;;;;;16.00;3.50;;;;;;;30.04;22.22;100570.11;1709098;83;21318;-89
2022/08/26 06:53:47;;;;;;;14.68;3.27;;;;;;;29.82;22.49;100560.20;1709264;84;21031;-89
2022/08/26 06:56:17;;;;;;;14.63;2.62;;;;;;;29.61;23.02;100571.64;1709048;83;20937;-89
2022/08/26 06:58:44;;;;;;;13.50;2.83;;;;;;;29.39;23.10;100581.14;1709259;84;20924;-88
2022/08/26 07:01:32;;;;;;;15.05;8.08;;;;;;;29.20;23.08;100566.73;1681335;84;20980;-90
2022/08/26 07:04:03;;;;;;;14.18;3.62;;;;;;;29.11;23.62;100581.82;1702473;84;20925;-88
2022/08/26 07:06:30;;;;;;;19.70;3.98;;;;;;;29.20;23.61;100573.48;1709302;80;20968;-90
2022/08/26 07:09:00;;;;;;;14.03;3.08;;;;;;;29.43;23.12;100578.32;1708992;83;20964;-90
2022/08/26 07:11:27;;;;;;;10.15;3.20;;;;;;;29.61;23.66;100570.28;1708864;84;21547;-88
2022/08/26 07:13:57;;;;;;;15.38;2.72;;;;;;;29.86;23.68;100576.27;1709347;83;20870;-90
2022/08/26 07:16:24;;;;;;;11.50;4.37;;;;;;;30.10;23.23;100584.92;1709192;83;21270;-91
2022/08/26 07:18:52;;;;;;;27.27;3.95;;;;;;;30.14;22.74;100576.64;1709436;84;21382;-88
2022/08/26 07:21:21;;;;;;;12.60;3.90;;;;;;;30.05;23.37;100584.73;1709174;83;21000;-89
2022/08/26 07:23:48;;;;;;;13.68;3.12;;;;;;;29.96;23.50;100577.42;1709122;83;20977;-88
2022/08/26 07:26:18;;;;;;;8.60;3.42;;;;;;;29.83;23.50;100578.89;1709638;83;21028;-89
2022/08/26 07:28:49;;;;;;;12.40;3.75;;;;;;;29.82;23.97;100573.19;1714426;83;21995;-90
2022/08/26 07:31:17;;;;;;;11.30;2.77;;;;;;;29.90;24.16;100576.13;1714660;83;20995;-89
2022/08/26 07:33:44;;;;;;;14.28;3.37;;;;;;;29.99;23.84;100573.98;1714699;83;21403;-91
2022/08/26 07:36:15;;;;;;;10.03;3.12;;;;;;;30.06;23.86;100575.59;1714634;83;20987;-89
2022/08/26 07:38:43;;;;;;;12.33;3.60;;;;;;;30.14;23.84;100567.17;1714796;83;20893;-90
2022/08/26 07:41:11;;;;;;;16.17;4.90;;;;;;;30.22;23.42;100567.97;1715409;83;21151;-90
2022/08/26 07:43:39;;;;;;;14.58;3.62;;;;;;;30.17;23.26;100569.98;1715533;83;20956;-87
2022/08/26 07:46:06;;;;;;;10.48;4.83;;;;;;;30.11;22.86;100570.34;1715401;83;20980;-90
2022/08/26 07:48:36;;;;;;;14.43;2.55;;;;;;;30.05;23.43;100567.69;1715084;83;20999;-89
2022/08/26 07:51:03;;;;;;;9.33;2.40;;;;;;;29.94;22.36;100579.52;1714921;83;20921;-86
2022/08/26 07:53:31;;;;;;;19.00;2.60;;;;;;;29.69;22.69;100574.11;1714763;83;21299;-88
2022/08/26 07:55:57;;;;;;;4.85;2.27;;;;;;;29.49;23.16;100578.28;1714850;83;21045;-88
2022/08/26 07:58:24;;;;;;;9.70;2.80;;;;;;;29.42;23.20;100581.55;1714765;83;20900;-88
2022/08/26 08:00:51;;;;;;;14.40;3.12;;;;;;;29.42;23.35;100595.59;1714816;83;21083;-91
2022/08/26 08:03:19;;;;;;;12.98;2.22;;;;;;;29.40;23.33;100582.82;1714934;83;21496;-87
2022/08/26 08:05:46;;;;;;;10.50;2.22;;;;;;;29.39;23.42;100566.28;1714615;83;21232;-88
2022/08/26 08:08:12;;;;;;;20.08;3.00;;;;;;;29.36;23.50;100576.19;1714685;83;21001;-88
2022/08/26 08:10:40;;;;;;;15.98;2.80;;;;;;;29.41;23.95;100572.30;1714623;83;21008;-88
2022/08/26 08:13:07;;;;;;;11.55;2.92;;;;;;;29.48;23.84;100569.88;1714433;83;20963;-90
2022/08/26 08:15:36;;;;;;;8.50;3.55;;;;;;;29.52;23.76;100566.20;1714699;83;21485;-89
2022/08/26 08:18:05;;;;;;;11.25;2.92;;;;;;;29.51;24.17;100564.55;1714789;83;21981;-90
2022/08/26 08:20:37;;;;;;;15.90;2.98;;;;;;;29.48;24.06;100575.28;1714686;83;20889;-90
2022/08/26 08:23:03;;;;;;;10.88;2.75;;;;;;;29.43;23.96;100579.67;1715115;83;21029;-90
2022/08/26 08:25:32;;;;;;;15.78;3.52;;;;;;;29.34;23.44;100559.66;1714797;83;21366;-89
2022/08/26 08:27:58;;;;;;;19.25;2.65;;;;;;;29.28;22.92;100578.11;1715433;83;21438;-90
2022/08/26 08:30:26;;;;;;;23.73;4.60;;;;;;;29.27;22.72;100558.05;1715033;83;21022;-89
2022/08/26 08:32:53;;;;;;;15.90;3.75;;;;;;;29.25;22.32;100554.20;1714691;83;20929;-89
2022/08/26 08:35:21;;;;;;;18.98;2.60;;;;;;;29.27;22.47;100558.87;1714858;83;20913;-89
2022/08/26 08:37:53;;;;;;;14.05;2.00;;;;;;;29.37;22.51;100557.06;1714613;83;21513;-89
2022/08/26 08:40:23;;;;;;;15.65;2.02;;;;;;;29.47;22.55;100552.52;1715007;83;20989;-91
2022/08/26 08:43:03;;;;;;;10.10;2.47;;;;;;;29.52;22.40;100549.45;1714846;83;21389;-88
2022/08/26 08:45:38;;;;;;;15.13;2.72;;;;;;;29.58;22.04;100559.11;1712019;83;20992;-90
2022/08/26 08:48:31;;;;;;;16.02;1.95;;;;;;;29.55;22.37;100566.60;1714767;82;21422;-92
2022/08/26 08:54:28;;;;;;;8.15;1.52;;;;;;;29.57;22.93;100550.17;1655955;86;20906;-91
2022/08/26 08:57:10;;;;;;;8.28;1.85;;;;;;;29.60;22.68;100555.66;1655679;86;21131;-91
2022/08/26 08:59:42;;;;;;;13.90;3.45;;;;;;;29.67;22.76;100534.81;1656190;86;20988;-91
2022/08/26 09:02:17;;;;;;;17.32;4.08;;;;;;;29.74;22.50;100567.52;1654378;86;20944;-89
2022/08/26 09:05:01;;;;;;;13.40;3.37;;;;;;;29.81;22.16;100539.08;1655795;86;21324;-92
2022/08/26 09:08:04;;;;;;;16.87;4.17;;;;;;;29.86;22.12;100530.30;1655683;86;21011;-89
2022/08/26 09:10:38;;;;;;;13.05;3.62;;;;;;;29.91;21.80;100538.06;1655841;86;21233;-89
2022/08/26 09:13:10;;;;;;;18.65;3.70;;;;;;;29.94;21.58;100532.73;1655429;86;21406;-91
2022/08/26 09:16:07;;;;;;;14.78;4.42;;;;;;;29.96;21.43;100548.21;1656405;86;21021;-90
2022/08/26 09:19:20;;;;;;;7.83;2.77;;;;;;;29.88;21.56;100558.80;1656131;86;20925;-88
2022/08/26 09:21:56;;;;;;;12.60;3.12;;;;;;;29.86;21.94;100538.41;1657403;86;21081;-87
2022/08/26 09:24:23;;;;;;;13.70;3.02;;;;;;;29.84;21.55;100554.05;1657654;86;21130;-87
2022/08/26 09:26:51;;;;;;;16.55;2.65;;;;;;;29.81;21.74;100542.31;1658111;83;21139;-89
2022/08/26 09:29:30;;;;;;;13.05;2.22;;;;;;;29.83;22.02;100543.74;1649132;83;21044;-90
2022/08/26 09:32:23;;;;;;;18.67;3.62;;;;;;;29.87;21.53;100553.60;1699970;81;20921;-89
2022/08/26 09:34:59;;;;;;;20.32;3.77;;;;;;;29.84;21.55;100539.19;1711745;81;21007;-90
2022/08/26 09:37:40;;;;;;;9.83;2.65;;;;;;;29.84;21.86;100543.24;1682732;82;21184;-87
2022/08/26 09:40:32;;;;;;;10.82;3.00;;;;;;;29.87;21.86;100544.14;1710114;84;21661;-89
2022/08/26 09:43:20;;;;;;;15.45;2.30;;;;;;;29.94;22.07;100543.02;1710848;83;21047;-88
2022/08/26 09:45:53;;;;;;;12.80;2.83;;;;;;;30.04;21.91;100551.17;1711089;83;20949;-87
2022/08/26 09:48:31;;;;;;;9.48;1.95;;;;;;;30.07;21.89;100542.61;1710653;83;20972;-88
2022/08/26 09:51:00;;;;;;;11.08;2.55;;;;;;;30.05;22.18;100533.88;1710709;83;21065;-90
2022/08/26 09:53:33;;;;;;;14.07;3.17;;;;;;;30.04;21.97;100540.36;1710354;84;21016;-88
2022/08/26 09:56:26;;;;;;;7.57;1.57;;;;;;;30.01;22.08;100542.13;1710188;83;20948;-88
2022/08/26 09:58:54;;;;;;;7.85;2.05;;;;;;;29.95;22.05;100562.80;1710238;83;20920;-90
2022/08/26 10:01:29;;;;;;;11.63;2.15;;;;;;;29.84;22.25;100554.05;1709234;84;20988;-92
2022/08/26 10:04:25;;;;;;;11.70;2.25;;;;;;;29.74;22.41;100552.65;1709432;83;23705;-90
2022/08/26 10:07:03;;;;;;;20.70;13.22;;;;;;;29.65;22.74;100565.28;1709522;84;20932;-89
2022/08/26 10:09:37;;;;;;;8.50;4.08;;;;;;;29.58;23.09;100555.87;1709705;83;20905;-88
2022/08/26 10:12:07;;;;;;;12.40;1.90;;;;;;;29.58;23.02;100555.87;1709243;83;20952;-88
2022/08/26 10:14:47;;;;;;;10.35;2.98;;;;;;;29.57;22.77;100558.28;1681242;84;20889;-88
2022/08/26 10:17:30;;;;;;;9.35;2.45;;;;;;;29.54;22.81;100550.59;1708867;83;21205;-90
2022/08/26 10:20:11;;;;;;;15.53;2.45;;;;;;;29.48;22.60;100558.22;1708809;84;21065;-89
2022/08/26 10:22:54;;;;;;;7.28;1.98;;;;;;;29.36;22.72;100549.99;1708001;82;21000;-89
2022/08/26 10:25:39;;;;;;;10.55;2.02;;;;;;;29.25;23.07;100554.20;1708941;84;20964;-89
2022/08/26 10:28:39;;;;;;;7.90;2.10;;;;;;;29.16;23.33;100557.39;1709238;83;21418;-87
2022/08/26 10:31:17;;;;;;;14.60;2.85;;;;;;;29.06;23.61;100551.91;1714463;83;21149;-89
2022/08/26 10:33:44;;;;;;;13.78;2.62;;;;;;;29.00;23.92;100550.06;1714756;83;20865;-88
2022/08/26 10:36:48;;;;;;;6.75;2.10;;;;;;;28.98;23.58;100541.87;1714603;83;20953;-89
2022/08/26 10:38:43;;;;;;;8.87;2.70;;;;;;;28.86;23.64;100538.50;1711148;83;20909;-88
2022/08/26 10:41:15;;;;;;;7.60;2.20;;;;;;;28.77;23.56;100541.64;1715363;83;20963;-88
2022/08/26 10:43:53;;;;;;;6.50;2.37;;;;;;;28.69;23.87;100552.17;1714834;83;21086;-88
2022/08/26 10:46:23;;;;;;;14.43;3.52;;;;;;;28.62;23.98;100541.92;1714845;83;20925;-89
2022/08/26 10:49:04;;;;;;;10.82;2.33;;;;;;;28.53;24.16;100543.20;1715041;83;21000;-89
2022/08/26 10:51:40;;;;;;;9.40;2.53;;;;;;;28.47;24.42;100539.44;1714896;83;20956;-87
2022/08/26 10:54:27;;;;;;;11.95;2.08;;;;;;;28.46;24.60;100541.84;1715134;83;20992;-89
2022/08/26 10:57:35;;;;;;;12.85;2.47;;;;;;;28.46;24.84;100538.62;1715129;83;21180;-89
2022/08/26 11:03:24;;;;;;;13.93;2.22;;;;;;;28.43;25.06;100544.42;1715368;83;20858;-89
2022/08/26 11:06:20;;;;;;;8.45;2.47;;;;;;;28.39;25.04;100535.61;1714807;83;20905;-90
2022/08/26 11:08:49;;;;;;;11.97;2.35;;;;;;;28.37;25.20;100545.28;1708187;83;21027;-88
2022/08/26 11:11:44;;;;;;;14.73;2.90;;;;;;;28.33;25.34;100531.09;1714199;83;21257;-90
2022/08/26 11:14:29;;;;;;;12.45;2.52;;;;;;;28.30;25.58;100532.31;1714785;83;21466;-89
2022/08/26 11:16:58;;;;;;;9.95;2.45;;;;;;;28.30;25.88;100530.96;1714844;83;21514;-91
2022/08/26 11:19:40;;;;;;;13.28;5.40;;;;;;;28.33;25.68;100540.00;1714637;83;20901;-88
2022/08/26 11:22:27;;;;;;;7.20;2.67;;;;;;;28.32;25.69;100522.14;1714783;83;21039;-89
2022/08/26 11:24:59;;;;;;;13.68;2.65;;;;;;;28.36;25.78;100547.66;1714943;83;21223;-89
2022/08/26 11:27:37;;;;;;;8.63;2.60;;;;;;;28.33;25.31;100541.34;1714710;83;21525;-88
2022/08/26 11:30:15;;;;;;;8.35;2.67;;;;;;;28.29;25.63;100522.05;1714731;83;21513;-88
2022/08/26 11:32:47;;;;;;;10.15;2.22;;;;;;;28.29;25.56;100535.53;1714525;83;20960;-88
2022/08/26 11:35:23;;;;;;;11.48;3.05;;;;;;;28.24;25.73;100535.34;1714572;83;20908;-89
2022/08/26 11:37:56;;;;;;;9.65;2.42;;;;;;;28.20;26.04;100534.11;1714612;83;21160;-88
2022/08/26 11:40:27;;;;;;;14.10;2.55;;;;;;;28.19;26.49;100534.30;1714775;83;21354;-89
2022/08/26 11:42:57;;;;;;;11.60;2.85;;;;;;;28.22;25.94;100536.60;1714254;83;20937;-87
2022/08/26 11:45:42;;;;;;;7.17;2.85;;;;;;;28.20;25.98;100530.59;1698259;83;20913;-89
2022/08/26 11:48:24;;;;;;;11.05;3.15;;;;;;;28.20;26.03;100532.75;1714189;83;20913;-88
2022/08/26 11:51:07;;;;;;;7.20;2.30;;;;;;;28.20;25.92;100524.67;1714286;83;21835;-89